sensor_id;sensor_type;location;lat;lon;timestamp;P1;durP1;ratioP1;P2;durP2;ratioP2
2850;SDS011;1433;49.976;8.342;2022-10-16T00:01:29;4.03;;;2.10;;
2850;SDS011;1433;49.976;8.342;2022-10-16T00:03:55;2.53;;;1.60;;
2850;SDS011;1433;49.976;8.342;2022-10-16T00:06:23;2.63;;;2.00;;
2850;SDS011;1433;49.976;8.342;2022-10-16T00:08:50;2.20;;;1.90;;
2850;SDS011;1433;49.976;8.342;2022-10-16T00:11:28;2.90;;;1.93;;
2850;SDS011;1433;49.976;8.342;2022-10-16T00:13:59;1.87;;;1.70;;
2850;SDS011;1433;49.976;8.342;2022-10-16T00:16:27;2.40;;;2.13;;
2850;SDS011;1433;49.976;8.342;2022-10-16T00:18:54;1.83;;;1.73;;
2850;SDS011;1433;49.976;8.342;2022-10-16T00:21:23;2.37;;;2.17;;
2850;SDS011;1433;49.976;8.342;2022-10-16T00:23:52;4.23;;;2.90;;
2850;SDS011;1433;49.976;8.342;2022-10-16T00:26:31;2.03;;;1.80;;
2850;SDS011;1433;49.976;8.342;2022-10-16T00:28:59;2.60;;;2.40;;
2850;SDS011;1433;49.976;8.342;2022-10-16T00:31:26;2.87;;;2.23;;
2850;SDS011;1433;49.976;8.342;2022-10-16T00:33:52;3.20;;;2.70;;
2850;SDS011;1433;49.976;8.342;2022-10-16T00:36:20;3.53;;;3.20;;
2850;SDS011;1433;49.976;8.342;2022-10-16T00:38:52;3.93;;;2.10;;
2850;SDS011;1433;49.976;8.342;2022-10-16T00:41:22;2.83;;;2.63;;
2850;SDS011;1433;49.976;8.342;2022-10-16T00:43:51;2.10;;;1.90;;
2850;SDS011;1433;49.976;8.342;2022-10-16T00:49:03;1.63;;;1.53;;
2850;SDS011;1433;49.976;8.342;2022-10-16T00:51:36;2.63;;;2.27;;
2850;SDS011;1433;49.976;8.342;2022-10-16T00:54:07;2.63;;;2.40;;
2850;SDS011;1433;49.976;8.342;2022-10-16T00:56:43;2.57;;;2.37;;
2850;SDS011;1433;49.976;8.342;2022-10-16T00:59:19;4.30;;;2.83;;
2850;SDS011;1433;49.976;8.342;2022-10-16T01:01:50;4.37;;;2.80;;
2850;SDS011;1433;49.976;8.342;2022-10-16T01:04:18;3.27;;;2.93;;
2850;SDS011;1433;49.976;8.342;2022-10-16T01:12:48;3.73;;;2.57;;
2850;SDS011;1433;49.976;8.342;2022-10-16T01:18:10;3.03;;;2.27;;
2850;SDS011;1433;49.976;8.342;2022-10-16T01:21:06;2.20;;;2.00;;
2850;SDS011;1433;49.976;8.342;2022-10-16T01:29:39;3.67;;;3.33;;
2850;SDS011;1433;49.976;8.342;2022-10-16T01:32:23;3.43;;;3.10;;
2850;SDS011;1433;49.976;8.342;2022-10-16T01:37:39;2.83;;;2.63;;
2850;SDS011;1433;49.976;8.342;2022-10-16T01:40:13;3.47;;;3.17;;
2850;SDS011;1433;49.976;8.342;2022-10-16T01:42:45;6.40;;;3.83;;
2850;SDS011;1433;49.976;8.342;2022-10-16T01:45:17;3.63;;;3.33;;
2850;SDS011;1433;49.976;8.342;2022-10-16T01:47:45;5.57;;;3.00;;
2850;SDS011;1433;49.976;8.342;2022-10-16T01:50:14;5.63;;;3.70;;
2850;SDS011;1433;49.976;8.342;2022-10-16T01:52:43;3.30;;;3.10;;
2850;SDS011;1433;49.976;8.342;2022-10-16T01:55:16;3.33;;;3.03;;
2850;SDS011;1433;49.976;8.342;2022-10-16T01:57:46;3.70;;;3.40;;
2850;SDS011;1433;49.976;8.342;2022-10-16T02:00:14;4.00;;;3.70;;
2850;SDS011;1433;49.976;8.342;2022-10-16T02:02:46;3.30;;;3.10;;
2850;SDS011;1433;49.976;8.342;2022-10-16T02:05:21;4.60;;;4.00;;
2850;SDS011;1433;49.976;8.342;2022-10-16T02:07:56;4.50;;;4.20;;
2850;SDS011;1433;49.976;8.342;2022-10-16T02:10:22;4.07;;;3.73;;
2850;SDS011;1433;49.976;8.342;2022-10-16T02:12:55;4.27;;;3.97;;
2850;SDS011;1433;49.976;8.342;2022-10-16T02:15:48;5.10;;;3.37;;
2850;SDS011;1433;49.976;8.342;2022-10-16T02:18:14;4.37;;;3.50;;
2850;SDS011;1433;49.976;8.342;2022-10-16T02:20:56;3.43;;;3.13;;
2850;SDS011;1433;49.976;8.342;2022-10-16T02:26:28;3.63;;;3.33;;
2850;SDS011;1433;49.976;8.342;2022-10-16T02:29:00;3.27;;;3.07;;
2850;SDS011;1433;49.976;8.342;2022-10-16T02:31:31;3.80;;;3.50;;
2850;SDS011;1433;49.976;8.342;2022-10-16T02:34:01;6.67;;;3.90;;
2850;SDS011;1433;49.976;8.342;2022-10-16T02:36:30;5.20;;;3.67;;
2850;SDS011;1433;49.976;8.342;2022-10-16T02:38:58;3.30;;;3.00;;
2850;SDS011;1433;49.976;8.342;2022-10-16T02:41:26;4.70;;;3.83;;
2850;SDS011;1433;49.976;8.342;2022-10-16T02:43:53;3.37;;;3.07;;
2850;SDS011;1433;49.976;8.342;2022-10-16T02:46:20;4.23;;;3.43;;
2850;SDS011;1433;49.976;8.342;2022-10-16T02:48:47;3.60;;;3.30;;
2850;SDS011;1433;49.976;8.342;2022-10-16T02:51:13;4.83;;;3.43;;
2850;SDS011;1433;49.976;8.342;2022-10-16T02:53:40;8.50;;;3.67;;
2850;SDS011;1433;49.976;8.342;2022-10-16T02:56:07;4.73;;;4.33;;
2850;SDS011;1433;49.976;8.342;2022-10-16T02:58:33;3.50;;;3.30;;
2850;SDS011;1433;49.976;8.342;2022-10-16T03:00:59;3.97;;;3.67;;
2850;SDS011;1433;49.976;8.342;2022-10-16T03:03:25;4.53;;;3.77;;
2850;SDS011;1433;49.976;8.342;2022-10-16T03:05:53;4.63;;;4.23;;
2850;SDS011;1433;49.976;8.342;2022-10-16T03:08:19;4.33;;;4.03;;
2850;SDS011;1433;49.976;8.342;2022-10-16T03:10:47;8.40;;;3.57;;
2850;SDS011;1433;49.976;8.342;2022-10-16T03:13:14;4.57;;;4.17;;
2850;SDS011;1433;49.976;8.342;2022-10-16T03:15:40;5.43;;;4.10;;
2850;SDS011;1433;49.976;8.342;2022-10-16T03:18:06;6.57;;;4.10;;
2850;SDS011;1433;49.976;8.342;2022-10-16T03:20:33;4.53;;;3.60;;
2850;SDS011;1433;49.976;8.342;2022-10-16T03:22:59;3.10;;;2.90;;
2850;SDS011;1433;49.976;8.342;2022-10-16T03:25:25;2.70;;;2.50;;
2850;SDS011;1433;49.976;8.342;2022-10-16T03:27:52;4.90;;;2.70;;
2850;SDS011;1433;49.976;8.342;2022-10-16T03:30:18;3.30;;;3.10;;
2850;SDS011;1433;49.976;8.342;2022-10-16T03:32:44;4.30;;;2.83;;
2850;SDS011;1433;49.976;8.342;2022-10-16T03:35:10;2.30;;;2.10;;
2850;SDS011;1433;49.976;8.342;2022-10-16T03:37:37;3.63;;;2.50;;
2850;SDS011;1433;49.976;8.342;2022-10-16T03:40:03;3.47;;;2.57;;
2850;SDS011;1433;49.976;8.342;2022-10-16T03:42:31;1.83;;;1.63;;
2850;SDS011;1433;49.976;8.342;2022-10-16T03:44:57;2.57;;;2.37;;
2850;SDS011;1433;49.976;8.342;2022-10-16T03:47:23;2.07;;;1.97;;
2850;SDS011;1433;49.976;8.342;2022-10-16T03:49:50;2.73;;;2.53;;
2850;SDS011;1433;49.976;8.342;2022-10-16T03:52:16;4.10;;;2.40;;
2850;SDS011;1433;49.976;8.342;2022-10-16T03:54:43;2.27;;;2.17;;
2850;SDS011;1433;49.976;8.342;2022-10-16T03:57:09;5.33;;;2.40;;
2850;SDS011;1433;49.976;8.342;2022-10-16T03:59:36;3.20;;;2.50;;
2850;SDS011;1433;49.976;8.342;2022-10-16T04:02:02;3.20;;;2.43;;
2850;SDS011;1433;49.976;8.342;2022-10-16T04:04:28;2.57;;;2.37;;
2850;SDS011;1433;49.976;8.342;2022-10-16T04:06:56;2.10;;;1.90;;
2850;SDS011;1433;49.976;8.342;2022-10-16T04:09:25;2.17;;;2.07;;
2850;SDS011;1433;49.976;8.342;2022-10-16T04:11:51;2.20;;;2.00;;
2850;SDS011;1433;49.976;8.342;2022-10-16T04:14:18;2.97;;;2.30;;
2850;SDS011;1433;49.976;8.342;2022-10-16T04:16:44;1.90;;;1.80;;
2850;SDS011;1433;49.976;8.342;2022-10-16T04:19:10;2.43;;;1.87;;
2850;SDS011;1433;49.976;8.342;2022-10-16T04:21:37;3.73;;;2.10;;
2850;SDS011;1433;49.976;8.342;2022-10-16T04:24:03;1.90;;;1.80;;
2850;SDS011;1433;49.976;8.342;2022-10-16T04:26:30;2.63;;;2.00;;
2850;SDS011;1433;49.976;8.342;2022-10-16T04:28:56;2.87;;;1.93;;
2850;SDS011;1433;49.976;8.342;2022-10-16T04:31:22;2.47;;;2.27;;
2850;SDS011;1433;49.976;8.342;2022-10-16T04:33:49;2.60;;;1.93;;
2850;SDS011;1433;49.976;8.342;2022-10-16T04:36:15;2.13;;;1.93;;
2850;SDS011;1433;49.976;8.342;2022-10-16T04:38:41;1.70;;;1.60;;
2850;SDS011;1433;49.976;8.342;2022-10-16T04:41:08;3.57;;;2.00;;
2850;SDS011;1433;49.976;8.342;2022-10-16T04:43:34;1.90;;;1.80;;
2850;SDS011;1433;49.976;8.342;2022-10-16T04:46:01;1.63;;;1.53;;
2850;SDS011;1433;49.976;8.342;2022-10-16T04:48:27;2.43;;;1.93;;
2850;SDS011;1433;49.976;8.342;2022-10-16T04:50:54;1.70;;;1.40;;
2850;SDS011;1433;49.976;8.342;2022-10-16T04:53:20;1.70;;;1.60;;
2850;SDS011;1433;49.976;8.342;2022-10-16T04:55:46;3.53;;;1.60;;
2850;SDS011;1433;49.976;8.342;2022-10-16T04:58:13;1.90;;;1.80;;
2850;SDS011;1433;49.976;8.342;2022-10-16T05:00:39;1.50;;;1.40;;
2850;SDS011;1433;49.976;8.342;2022-10-16T05:03:05;2.70;;;1.63;;
2850;SDS011;1433;49.976;8.342;2022-10-16T05:05:34;1.60;;;1.50;;
2850;SDS011;1433;49.976;8.342;2022-10-16T05:08:01;1.80;;;1.67;;
2850;SDS011;1433;49.976;8.342;2022-10-16T05:10:29;2.00;;;1.83;;
2850;SDS011;1433;49.976;8.342;2022-10-16T05:12:55;1.93;;;1.80;;
2850;SDS011;1433;49.976;8.342;2022-10-16T05:15:22;2.30;;;2.00;;
2850;SDS011;1433;49.976;8.342;2022-10-16T05:17:52;4.30;;;2.00;;
2850;SDS011;1433;49.976;8.342;2022-10-16T05:20:19;2.63;;;2.00;;
2850;SDS011;1433;49.976;8.342;2022-10-16T05:22:46;2.90;;;1.73;;
2850;SDS011;1433;49.976;8.342;2022-10-16T05:25:12;3.00;;;1.70;;
2850;SDS011;1433;49.976;8.342;2022-10-16T05:27:38;3.00;;;2.03;;
2850;SDS011;1433;49.976;8.342;2022-10-16T05:30:05;1.70;;;1.60;;
2850;SDS011;1433;49.976;8.342;2022-10-16T05:32:33;4.60;;;2.30;;
2850;SDS011;1433;49.976;8.342;2022-10-16T05:34:59;2.93;;;2.07;;
2850;SDS011;1433;49.976;8.342;2022-10-16T05:37:29;3.20;;;2.90;;
2850;SDS011;1433;49.976;8.342;2022-10-16T05:39:55;1.97;;;1.87;;
2850;SDS011;1433;49.976;8.342;2022-10-16T05:42:21;2.50;;;1.87;;
2850;SDS011;1433;49.976;8.342;2022-10-16T05:44:48;2.23;;;2.00;;
2850;SDS011;1433;49.976;8.342;2022-10-16T05:47:14;3.60;;;2.30;;
2850;SDS011;1433;49.976;8.342;2022-10-16T05:49:40;2.43;;;2.23;;
2850;SDS011;1433;49.976;8.342;2022-10-16T05:52:07;2.40;;;2.20;;
2850;SDS011;1433;49.976;8.342;2022-10-16T05:54:33;1.87;;;1.77;;
2850;SDS011;1433;49.976;8.342;2022-10-16T05:56:59;2.77;;;2.53;;
2850;SDS011;1433;49.976;8.342;2022-10-16T05:59:25;2.37;;;1.63;;
2850;SDS011;1433;49.976;8.342;2022-10-16T06:01:52;1.70;;;1.60;;
2850;SDS011;1433;49.976;8.342;2022-10-16T06:04:19;2.03;;;1.93;;
2850;SDS011;1433;49.976;8.342;2022-10-16T06:06:47;6.17;;;2.20;;
2850;SDS011;1433;49.976;8.342;2022-10-16T06:09:15;2.90;;;2.20;;
2850;SDS011;1433;49.976;8.342;2022-10-16T06:11:41;3.73;;;1.73;;
2850;SDS011;1433;49.976;8.342;2022-10-16T06:14:08;2.63;;;1.97;;
2850;SDS011;1433;49.976;8.342;2022-10-16T06:16:35;2.10;;;1.90;;
2850;SDS011;1433;49.976;8.342;2022-10-16T06:19:03;3.00;;;2.20;;
2850;SDS011;1433;49.976;8.342;2022-10-16T06:21:32;4.87;;;2.40;;
2850;SDS011;1433;49.976;8.342;2022-10-16T06:23:58;2.67;;;2.47;;
2850;SDS011;1433;49.976;8.342;2022-10-16T06:26:25;3.53;;;2.63;;
2850;SDS011;1433;49.976;8.342;2022-10-16T06:28:55;2.43;;;2.23;;
2850;SDS011;1433;49.976;8.342;2022-10-16T06:31:23;2.83;;;2.17;;
2850;SDS011;1433;49.976;8.342;2022-10-16T06:33:52;2.70;;;2.50;;
2850;SDS011;1433;49.976;8.342;2022-10-16T06:36:20;3.50;;;3.20;;
2850;SDS011;1433;49.976;8.342;2022-10-16T06:38:46;5.60;;;3.37;;
2850;SDS011;1433;49.976;8.342;2022-10-16T06:41:14;2.83;;;2.60;;
2850;SDS011;1433;49.976;8.342;2022-10-16T06:43:42;2.67;;;2.47;;
2850;SDS011;1433;49.976;8.342;2022-10-16T06:46:11;2.80;;;2.60;;
2850;SDS011;1433;49.976;8.342;2022-10-16T06:48:40;6.50;;;3.60;;
2850;SDS011;1433;49.976;8.342;2022-10-16T06:53:44;3.00;;;2.80;;
2850;SDS011;1433;49.976;8.342;2022-10-16T06:56:21;3.93;;;3.60;;
2850;SDS011;1433;49.976;8.342;2022-10-16T06:58:51;2.80;;;2.60;;
2850;SDS011;1433;49.976;8.342;2022-10-16T07:01:19;2.90;;;2.53;;
2850;SDS011;1433;49.976;8.342;2022-10-16T07:03:48;3.90;;;3.10;;
2850;SDS011;1433;49.976;8.342;2022-10-16T07:06:16;2.60;;;2.40;;
2850;SDS011;1433;49.976;8.342;2022-10-16T07:08:45;3.60;;;2.83;;
2850;SDS011;1433;49.976;8.342;2022-10-16T07:11:14;4.20;;;3.60;;
2850;SDS011;1433;49.976;8.342;2022-10-16T07:13:43;3.67;;;3.30;;
2850;SDS011;1433;49.976;8.342;2022-10-16T07:16:12;3.27;;;3.07;;
2850;SDS011;1433;49.976;8.342;2022-10-16T07:18:43;4.67;;;2.83;;
2850;SDS011;1433;49.976;8.342;2022-10-16T07:21:13;3.90;;;3.50;;
2850;SDS011;1433;49.976;8.342;2022-10-16T07:23:42;3.30;;;3.10;;
2850;SDS011;1433;49.976;8.342;2022-10-16T07:26:09;4.63;;;3.37;;
2850;SDS011;1433;49.976;8.342;2022-10-16T07:28:37;3.57;;;3.37;;
2850;SDS011;1433;49.976;8.342;2022-10-16T07:31:04;3.57;;;3.10;;
2850;SDS011;1433;49.976;8.342;2022-10-16T07:33:34;5.70;;;3.70;;
2850;SDS011;1433;49.976;8.342;2022-10-16T07:36:01;4.00;;;3.70;;
2850;SDS011;1433;49.976;8.342;2022-10-16T07:38:28;3.70;;;3.40;;
2850;SDS011;1433;49.976;8.342;2022-10-16T07:41:02;3.30;;;3.10;;
2850;SDS011;1433;49.976;8.342;2022-10-16T07:43:27;3.87;;;3.57;;
2850;SDS011;1433;49.976;8.342;2022-10-16T07:45:55;4.57;;;4.27;;
2850;SDS011;1433;49.976;8.342;2022-10-16T07:48:22;4.33;;;3.90;;
2850;SDS011;1433;49.976;8.342;2022-10-16T07:50:50;4.47;;;4.17;;
2850;SDS011;1433;49.976;8.342;2022-10-16T07:53:16;6.93;;;5.10;;
2850;SDS011;1433;49.976;8.342;2022-10-16T07:55:42;5.50;;;5.10;;
2850;SDS011;1433;49.976;8.342;2022-10-16T07:58:09;6.23;;;5.37;;
2850;SDS011;1433;49.976;8.342;2022-10-16T08:00:36;3.80;;;3.23;;
2850;SDS011;1433;49.976;8.342;2022-10-16T08:03:03;7.00;;;4.90;;
2850;SDS011;1433;49.976;8.342;2022-10-16T08:05:29;3.50;;;3.30;;
2850;SDS011;1433;49.976;8.342;2022-10-16T08:07:59;3.60;;;2.87;;
2850;SDS011;1433;49.976;8.342;2022-10-16T08:10:28;2.80;;;2.60;;
2850;SDS011;1433;49.976;8.342;2022-10-16T08:12:55;3.33;;;2.50;;
2850;SDS011;1433;49.976;8.342;2022-10-16T08:15:21;4.53;;;3.20;;
2850;SDS011;1433;49.976;8.342;2022-10-16T08:17:55;5.30;;;4.80;;
2850;SDS011;1433;49.976;8.342;2022-10-16T08:20:22;7.73;;;6.97;;
2850;SDS011;1433;49.976;8.342;2022-10-16T08:22:49;6.33;;;3.30;;
2850;SDS011;1433;49.976;8.342;2022-10-16T08:25:15;3.50;;;3.20;;
2850;SDS011;1433;49.976;8.342;2022-10-16T08:27:42;4.87;;;3.30;;
2850;SDS011;1433;49.976;8.342;2022-10-16T08:30:08;4.30;;;3.30;;
2850;SDS011;1433;49.976;8.342;2022-10-16T08:32:36;3.70;;;2.83;;
2850;SDS011;1433;49.976;8.342;2022-10-16T08:35:02;3.80;;;3.13;;
2850;SDS011;1433;49.976;8.342;2022-10-16T08:37:30;4.73;;;3.10;;
2850;SDS011;1433;49.976;8.342;2022-10-16T08:39:57;4.23;;;3.83;;
2850;SDS011;1433;49.976;8.342;2022-10-16T08:50:55;4.43;;;4.03;;
2850;SDS011;1433;49.976;8.342;2022-10-16T08:53:24;4.30;;;3.90;;
2850;SDS011;1433;49.976;8.342;2022-10-16T08:55:54;3.57;;;3.27;;
2850;SDS011;1433;49.976;8.342;2022-10-16T08:58:22;5.40;;;3.10;;
2850;SDS011;1433;49.976;8.342;2022-10-16T09:00:55;5.23;;;3.60;;
2850;SDS011;1433;49.976;8.342;2022-10-16T09:37:25;9.23;;;8.40;;
2850;SDS011;1433;49.976;8.342;2022-10-16T09:48:58;7.63;;;6.47;;
2850;SDS011;1433;49.976;8.342;2022-10-16T09:51:28;6.50;;;5.90;;
2850;SDS011;1433;49.976;8.342;2022-10-16T09:54:01;9.00;;;8.20;;
2850;SDS011;1433;49.976;8.342;2022-10-16T09:56:32;9.33;;;8.53;;
2850;SDS011;1433;49.976;8.342;2022-10-16T09:59:08;9.20;;;7.73;;
2850;SDS011;1433;49.976;8.342;2022-10-16T10:04:14;8.47;;;6.47;;
2850;SDS011;1433;49.976;8.342;2022-10-16T10:06:42;7.87;;;5.90;;
2850;SDS011;1433;49.976;8.342;2022-10-16T10:09:21;6.60;;;5.33;;
2850;SDS011;1433;49.976;8.342;2022-10-16T10:11:56;5.10;;;4.60;;
2850;SDS011;1433;49.976;8.342;2022-10-16T10:14:37;8.20;;;6.07;;
2850;SDS011;1433;49.976;8.342;2022-10-16T10:19:44;7.30;;;5.33;;
2850;SDS011;1433;49.976;8.342;2022-10-16T10:22:29;7.10;;;5.60;;
2850;SDS011;1433;49.976;8.342;2022-10-16T10:24:58;5.83;;;4.90;;
2850;SDS011;1433;49.976;8.342;2022-10-16T10:27:32;5.80;;;5.20;;
2850;SDS011;1433;49.976;8.342;2022-10-16T10:30:06;4.20;;;3.90;;
2850;SDS011;1433;49.976;8.342;2022-10-16T10:32:54;5.13;;;3.70;;
2850;SDS011;1433;49.976;8.342;2022-10-16T10:35:25;6.00;;;4.20;;
2850;SDS011;1433;49.976;8.342;2022-10-16T10:40:44;3.67;;;3.37;;
2850;SDS011;1433;49.976;8.342;2022-10-16T10:45:58;6.90;;;2.93;;
2850;SDS011;1433;49.976;8.342;2022-10-16T11:02:13;3.63;;;3.33;;
2850;SDS011;1433;49.976;8.342;2022-10-16T11:04:56;4.30;;;3.30;;
2850;SDS011;1433;49.976;8.342;2022-10-16T11:07:30;3.83;;;3.53;;
2850;SDS011;1433;49.976;8.342;2022-10-16T11:10:12;3.30;;;3.00;;
2850;SDS011;1433;49.976;8.342;2022-10-16T11:12:42;4.63;;;2.90;;
2850;SDS011;1433;49.976;8.342;2022-10-16T11:17:48;3.77;;;3.47;;
2850;SDS011;1433;49.976;8.342;2022-10-16T11:20:21;3.27;;;2.70;;
2850;SDS011;1433;49.976;8.342;2022-10-16T11:22:47;3.07;;;2.87;;
2850;SDS011;1433;49.976;8.342;2022-10-16T11:25:28;4.03;;;2.87;;
2850;SDS011;1433;49.976;8.342;2022-10-16T11:27:58;2.70;;;2.50;;
2850;SDS011;1433;49.976;8.342;2022-10-16T11:30:30;3.00;;;2.57;;
2850;SDS011;1433;49.976;8.342;2022-10-16T11:35:46;4.33;;;2.40;;
2850;SDS011;1433;49.976;8.342;2022-10-16T11:39:01;2.93;;;2.73;;
2850;SDS011;1433;49.976;8.342;2022-10-16T11:40:47;3.00;;;2.70;;
2850;SDS011;1433;49.976;8.342;2022-10-16T11:45:52;4.47;;;3.90;;
2850;SDS011;1433;49.976;8.342;2022-10-16T11:50:56;3.50;;;2.63;;
2850;SDS011;1433;49.976;8.342;2022-10-16T11:53:31;10.60;;;2.90;;
2850;SDS011;1433;49.976;8.342;2022-10-16T11:55:54;3.20;;;2.90;;
2850;SDS011;1433;49.976;8.342;2022-10-16T11:58:25;3.57;;;2.60;;
2850;SDS011;1433;49.976;8.342;2022-10-16T12:03:26;2.90;;;2.67;;
2850;SDS011;1433;49.976;8.342;2022-10-16T12:08:43;2.30;;;1.77;;
2850;SDS011;1433;49.976;8.342;2022-10-16T12:11:24;2.50;;;2.30;;
2850;SDS011;1433;49.976;8.342;2022-10-16T12:19:29;4.00;;;1.93;;
2850;SDS011;1433;49.976;8.342;2022-10-16T12:22:00;2.60;;;1.73;;
2850;SDS011;1433;49.976;8.342;2022-10-16T12:27:24;2.03;;;1.90;;
2850;SDS011;1433;49.976;8.342;2022-10-16T12:30:03;4.03;;;1.93;;
2850;SDS011;1433;49.976;8.342;2022-10-16T12:32:29;1.90;;;1.80;;
2850;SDS011;1433;49.976;8.342;2022-10-16T12:35:00;1.83;;;1.73;;
2850;SDS011;1433;49.976;8.342;2022-10-16T12:37:32;2.90;;;1.80;;
2850;SDS011;1433;49.976;8.342;2022-10-16T12:40:10;2.33;;;2.23;;
2850;SDS011;1433;49.976;8.342;2022-10-16T12:42:47;2.10;;;2.00;;
2850;SDS011;1433;49.976;8.342;2022-10-16T12:45:23;2.47;;;1.90;;
2850;SDS011;1433;49.976;8.342;2022-10-16T12:47:50;1.60;;;1.50;;
2850;SDS011;1433;49.976;8.342;2022-10-16T12:50:28;2.00;;;1.90;;
2850;SDS011;1433;49.976;8.342;2022-10-16T12:53:00;2.47;;;2.03;;
2850;SDS011;1433;49.976;8.342;2022-10-16T12:55:28;1.90;;;1.80;;
2850;SDS011;1433;49.976;8.342;2022-10-16T12:58:07;1.83;;;1.73;;
2850;SDS011;1433;49.976;8.342;2022-10-16T13:00:39;2.50;;;2.30;;
2850;SDS011;1433;49.976;8.342;2022-10-16T13:06:07;1.80;;;1.70;;
2850;SDS011;1433;49.976;8.342;2022-10-16T13:19:27;2.40;;;1.80;;
2850;SDS011;1433;49.976;8.342;2022-10-16T13:22:03;2.60;;;1.90;;
2850;SDS011;1433;49.976;8.342;2022-10-16T13:27:23;3.00;;;2.80;;
2850;SDS011;1433;49.976;8.342;2022-10-16T13:30:12;5.83;;;2.50;;
2850;SDS011;1433;49.976;8.342;2022-10-16T13:32:51;1.97;;;1.87;;
2850;SDS011;1433;49.976;8.342;2022-10-16T13:35:25;3.40;;;2.73;;
2850;SDS011;1433;49.976;8.342;2022-10-16T13:37:49;2.30;;;2.10;;
2850;SDS011;1433;49.976;8.342;2022-10-16T13:40:21;2.43;;;2.27;;
2850;SDS011;1433;49.976;8.342;2022-10-16T13:42:49;4.43;;;2.07;;
2850;SDS011;1433;49.976;8.342;2022-10-16T13:45:17;2.37;;;2.17;;
2850;SDS011;1433;49.976;8.342;2022-10-16T13:47:45;6.07;;;2.10;;
2850;SDS011;1433;49.976;8.342;2022-10-16T13:50:12;2.87;;;2.30;;
2850;SDS011;1433;49.976;8.342;2022-10-16T13:52:39;2.50;;;2.30;;
2850;SDS011;1433;49.976;8.342;2022-10-16T13:55:10;2.50;;;2.30;;
2850;SDS011;1433;49.976;8.342;2022-10-16T13:57:41;2.30;;;2.10;;
2850;SDS011;1433;49.976;8.342;2022-10-16T14:00:18;2.57;;;2.37;;
2850;SDS011;1433;49.976;8.342;2022-10-16T14:02:55;3.40;;;2.57;;
2850;SDS011;1433;49.976;8.342;2022-10-16T14:05:26;2.27;;;2.03;;
2850;SDS011;1433;49.976;8.342;2022-10-16T14:07:53;2.57;;;2.37;;
2850;SDS011;1433;49.976;8.342;2022-10-16T14:10:21;3.00;;;2.50;;
2850;SDS011;1433;49.976;8.342;2022-10-16T14:13:03;2.47;;;2.27;;
2850;SDS011;1433;49.976;8.342;2022-10-16T14:15:32;2.70;;;2.50;;
2850;SDS011;1433;49.976;8.342;2022-10-16T14:18:00;3.20;;;2.13;;
2850;SDS011;1433;49.976;8.342;2022-10-16T14:20:29;2.63;;;2.33;;
2850;SDS011;1433;49.976;8.342;2022-10-16T14:22:58;3.10;;;2.80;;
2850;SDS011;1433;49.976;8.342;2022-10-16T14:25:28;3.47;;;3.13;;
2850;SDS011;1433;49.976;8.342;2022-10-16T14:30:33;3.07;;;2.87;;
2850;SDS011;1433;49.976;8.342;2022-10-16T14:33:01;3.60;;;2.50;;
2850;SDS011;1433;49.976;8.342;2022-10-16T14:35:31;2.87;;;2.67;;
2850;SDS011;1433;49.976;8.342;2022-10-16T14:38:00;3.03;;;2.83;;
2850;SDS011;1433;49.976;8.342;2022-10-16T14:40:30;3.60;;;3.13;;
2850;SDS011;1433;49.976;8.342;2022-10-16T14:42:58;2.70;;;2.50;;
2850;SDS011;1433;49.976;8.342;2022-10-16T14:45:27;3.63;;;3.00;;
2850;SDS011;1433;49.976;8.342;2022-10-16T14:47:58;5.73;;;3.07;;
2850;SDS011;1433;49.976;8.342;2022-10-16T14:50:27;3.10;;;2.90;;
2850;SDS011;1433;49.976;8.342;2022-10-16T14:52:54;2.97;;;2.77;;
2850;SDS011;1433;49.976;8.342;2022-10-16T14:55:20;3.10;;;2.80;;
2850;SDS011;1433;49.976;8.342;2022-10-16T14:57:47;3.63;;;3.13;;
2850;SDS011;1433;49.976;8.342;2022-10-16T15:00:18;3.37;;;3.07;;
2850;SDS011;1433;49.976;8.342;2022-10-16T15:02:49;2.97;;;2.77;;
2850;SDS011;1433;49.976;8.342;2022-10-16T15:05:21;5.60;;;3.10;;
2850;SDS011;1433;49.976;8.342;2022-10-16T15:07:46;4.30;;;3.53;;
2850;SDS011;1433;49.976;8.342;2022-10-16T15:10:13;2.97;;;2.77;;
2850;SDS011;1433;49.976;8.342;2022-10-16T15:12:39;18.43;;;5.83;;
2850;SDS011;1433;49.976;8.342;2022-10-16T15:15:15;8.67;;;2.43;;
2850;SDS011;1433;49.976;8.342;2022-10-16T15:17:39;2.77;;;2.57;;
2850;SDS011;1433;49.976;8.342;2022-10-16T15:20:05;3.20;;;3.00;;
2850;SDS011;1433;49.976;8.342;2022-10-16T15:22:32;3.40;;;3.10;;
2850;SDS011;1433;49.976;8.342;2022-10-16T15:24:58;3.60;;;3.30;;
2850;SDS011;1433;49.976;8.342;2022-10-16T15:27:24;3.77;;;3.40;;
2850;SDS011;1433;49.976;8.342;2022-10-16T15:29:51;3.60;;;3.30;;
2850;SDS011;1433;49.976;8.342;2022-10-16T15:32:17;3.93;;;3.70;;
2850;SDS011;1433;49.976;8.342;2022-10-16T15:34:43;5.40;;;3.80;;
2850;SDS011;1433;49.976;8.342;2022-10-16T15:37:09;5.43;;;3.17;;
2850;SDS011;1433;49.976;8.342;2022-10-16T15:39:37;3.33;;;3.13;;
2850;SDS011;1433;49.976;8.342;2022-10-16T15:42:03;3.40;;;3.10;;
2850;SDS011;1433;49.976;8.342;2022-10-16T15:44:31;4.27;;;3.80;;
2850;SDS011;1433;49.976;8.342;2022-10-16T15:46:57;4.70;;;4.20;;
2850;SDS011;1433;49.976;8.342;2022-10-16T15:49:24;4.27;;;3.87;;
2850;SDS011;1433;49.976;8.342;2022-10-16T15:51:50;4.13;;;3.77;;
2850;SDS011;1433;49.976;8.342;2022-10-16T15:54:18;4.17;;;3.80;;
2850;SDS011;1433;49.976;8.342;2022-10-16T15:56:46;6.90;;;4.33;;
2850;SDS011;1433;49.976;8.342;2022-10-16T15:59:12;16.67;;;4.43;;
2850;SDS011;1433;49.976;8.342;2022-10-16T16:01:40;4.80;;;4.37;;
2850;SDS011;1433;49.976;8.342;2022-10-16T16:04:07;6.87;;;4.20;;
2850;SDS011;1433;49.976;8.342;2022-10-16T16:06:33;4.43;;;4.03;;
2850;SDS011;1433;49.976;8.342;2022-10-16T16:09:00;5.80;;;4.83;;
2850;SDS011;1433;49.976;8.342;2022-10-16T16:11:26;5.23;;;4.33;;
2850;SDS011;1433;49.976;8.342;2022-10-16T16:13:52;5.37;;;4.97;;
2850;SDS011;1433;49.976;8.342;2022-10-16T16:16:20;5.30;;;4.47;;
2850;SDS011;1433;49.976;8.342;2022-10-16T16:18:46;4.10;;;3.70;;
2850;SDS011;1433;49.976;8.342;2022-10-16T16:21:14;8.20;;;5.70;;
2850;SDS011;1433;49.976;8.342;2022-10-16T16:23:40;4.80;;;4.43;;
2850;SDS011;1433;49.976;8.342;2022-10-16T16:26:13;8.00;;;4.87;;
2850;SDS011;1433;49.976;8.342;2022-10-16T16:28:42;6.13;;;5.63;;
2850;SDS011;1433;49.976;8.342;2022-10-16T16:31:08;6.67;;;4.93;;
2850;SDS011;1433;49.976;8.342;2022-10-16T16:33:35;6.30;;;5.00;;
2850;SDS011;1433;49.976;8.342;2022-10-16T16:36:02;6.57;;;5.40;;
2850;SDS011;1433;49.976;8.342;2022-10-16T16:38:29;5.00;;;4.60;;
2850;SDS011;1433;49.976;8.342;2022-10-16T16:40:58;7.70;;;4.70;;
2850;SDS011;1433;49.976;8.342;2022-10-16T16:43:24;4.90;;;4.40;;
2850;SDS011;1433;49.976;8.342;2022-10-16T16:45:52;7.80;;;4.53;;
2850;SDS011;1433;49.976;8.342;2022-10-16T16:48:19;5.13;;;4.33;;
2850;SDS011;1433;49.976;8.342;2022-10-16T16:50:46;12.20;;;11.10;;
2850;SDS011;1433;49.976;8.342;2022-10-16T16:53:12;8.97;;;8.07;;
2850;SDS011;1433;49.976;8.342;2022-10-16T16:55:39;6.07;;;5.57;;
2850;SDS011;1433;49.976;8.342;2022-10-16T16:58:05;5.47;;;5.07;;
2850;SDS011;1433;49.976;8.342;2022-10-16T17:00:31;5.60;;;5.10;;
2850;SDS011;1433;49.976;8.342;2022-10-16T17:02:57;10.13;;;5.83;;
2850;SDS011;1433;49.976;8.342;2022-10-16T17:05:24;5.60;;;5.20;;
2850;SDS011;1433;49.976;8.342;2022-10-16T17:07:51;4.80;;;4.50;;
2850;SDS011;1433;49.976;8.342;2022-10-16T17:10:17;5.40;;;4.90;;
2850;SDS011;1433;49.976;8.342;2022-10-16T17:12:43;4.90;;;4.50;;
2850;SDS011;1433;49.976;8.342;2022-10-16T17:15:09;5.00;;;4.60;;
2850;SDS011;1433;49.976;8.342;2022-10-16T17:17:36;6.27;;;5.67;;
2850;SDS011;1433;49.976;8.342;2022-10-16T17:20:02;6.70;;;6.10;;
2850;SDS011;1433;49.976;8.342;2022-10-16T17:22:29;5.80;;;5.30;;
2850;SDS011;1433;49.976;8.342;2022-10-16T17:24:55;6.80;;;6.20;;
2850;SDS011;1433;49.976;8.342;2022-10-16T17:27:21;6.50;;;5.90;;
2850;SDS011;1433;49.976;8.342;2022-10-16T17:29:51;6.17;;;5.77;;
2850;SDS011;1433;49.976;8.342;2022-10-16T17:32:17;6.70;;;6.20;;
2850;SDS011;1433;49.976;8.342;2022-10-16T17:34:45;8.43;;;6.70;;
2850;SDS011;1433;49.976;8.342;2022-10-16T17:37:12;7.40;;;6.73;;
2850;SDS011;1433;49.976;8.342;2022-10-16T17:39:38;8.30;;;7.50;;
2850;SDS011;1433;49.976;8.342;2022-10-16T17:42:04;6.73;;;6.13;;
2850;SDS011;1433;49.976;8.342;2022-10-16T17:44:30;7.17;;;6.50;;
2850;SDS011;1433;49.976;8.342;2022-10-16T17:46:57;5.97;;;5.47;;
2850;SDS011;1433;49.976;8.342;2022-10-16T17:49:23;9.43;;;7.50;;
2850;SDS011;1433;49.976;8.342;2022-10-16T17:51:50;8.00;;;7.20;;